createdAt,value
2019-03-21T00:01:11.143Z,59.63
2019-03-21T00:03:51.964Z,56.97
2019-03-21T00:06:33.622Z,52.57
2019-03-21T00:09:14.270Z,52.90
2019-03-21T00:11:55.542Z,56.77
2019-03-21T00:14:36.443Z,53.23
2019-03-21T00:17:17.370Z,50.70
2019-03-21T00:19:57.758Z,59.40
2019-03-21T00:22:38.211Z,56.03
2019-03-21T00:25:19.022Z,54.47
2019-03-21T00:28:00.606Z,52.90
2019-03-21T00:30:41.879Z,56.80
2019-03-21T00:33:22.880Z,56.57
2019-03-21T00:36:03.721Z,53.97
2019-03-21T00:38:44.433Z,57.77
2019-03-21T00:41:25.725Z,59.97
2019-03-21T00:44:06.391Z,59.80
2019-03-21T00:46:47.319Z,56.80
2019-03-21T00:49:28.610Z,63.53
2019-03-21T00:52:09.756Z,62.67
2019-03-21T00:54:50.576Z,50.97
2019-03-21T00:57:31.647Z,52.93
2019-03-21T01:00:12.471Z,68.53
2019-03-21T01:02:53.394Z,78.10
2019-03-21T03:13:14.196Z,56.47
2019-03-21T03:15:55.583Z,54.70
2019-03-21T03:18:36.997Z,54.13
2019-03-21T03:21:18.351Z,54.10
2019-03-21T03:23:59.004Z,50.10
2019-03-21T03:26:40.620Z,51.10
2019-03-21T03:29:21.073Z,49.33
2019-03-21T03:32:01.708Z,49.87
2019-03-21T03:34:42.492Z,49.07
2019-03-21T03:37:24.854Z,49.57
2019-03-21T03:40:05.794Z,45.63
2019-03-21T03:42:47.039Z,44.33
2019-03-21T03:45:37.596Z,44.13
2019-03-21T03:48:08.915Z,42.43
2019-03-21T03:50:50.227Z,41.63
2019-03-21T03:53:31.817Z,45.23
2019-03-21T03:56:13.415Z,41.50
2019-03-21T03:58:54.242Z,42.30
2019-03-21T04:01:35.974Z,41.43
2019-03-21T04:04:16.626Z,40.80
2019-03-21T04:06:57.111Z,41.63
2019-03-21T04:09:38.501Z,40.97
2019-03-21T04:12:18.571Z,40.67
2019-03-21T04:14:59.711Z,42.13
2019-03-21T04:17:40.426Z,42.17
2019-03-21T04:20:21.423Z,40.30
2019-03-21T04:23:02.340Z,40.50
2019-03-21T04:25:43.371Z,40.37
2019-03-21T04:28:23.985Z,40.10
2019-03-21T04:31:04.262Z,42.27
2019-03-21T04:33:44.808Z,38.70
2019-03-21T04:36:25.114Z,37.70
2019-03-21T04:39:05.815Z,38.70
2019-03-21T04:41:46.748Z,38.43
2019-03-21T04:44:34.067Z,37.53
2019-03-21T04:47:15.334Z,39.37
2019-03-21T04:49:55.718Z,38.53
2019-03-21T04:52:35.842Z,39.20
2019-03-21T04:55:15.981Z,37.15
2019-03-21T04:57:56.136Z,37.07
2019-03-21T05:00:36.745Z,35.97
2019-03-21T05:03:17.053Z,37.77
2019-03-21T05:05:57.973Z,37.63
2019-03-21T05:08:38.604Z,37.77
2019-03-21T05:11:18.997Z,36.37
2019-03-21T05:13:59.152Z,35.67
2019-03-21T05:16:40.185Z,34.90
2019-03-21T05:19:20.662Z,33.53
2019-03-21T05:22:01.317Z,34.40
2019-03-21T05:24:42.005Z,40.65
2019-03-21T05:27:22.538Z,34.33
2019-03-21T05:30:02.907Z,35.58
2019-03-21T05:32:43.131Z,35.30
2019-03-21T05:35:23.703Z,37.63
2019-03-21T05:38:04.055Z,36.53
2019-03-21T05:40:45.113Z,36.73
2019-03-21T05:43:25.136Z,37.17
2019-03-21T05:46:06.039Z,34.33
2019-03-21T05:48:46.802Z,41.17
2019-03-21T05:51:27.286Z,35.80
2019-03-21T05:54:07.875Z,33.83
2019-03-21T05:56:48.158Z,33.63
2019-03-21T05:59:28.723Z,32.83
2019-03-21T06:02:08.809Z,36.77
2019-03-21T06:04:49.567Z,39.27
2019-03-21T06:07:30.656Z,36.53
2019-03-21T06:10:11.223Z,37.53
2019-03-21T06:12:51.671Z,39.63
2019-03-21T06:15:32.362Z,37.80
2019-03-21T06:18:12.928Z,37.40
2019-03-21T06:20:53.794Z,41.40
2019-03-21T06:23:34.057Z,36.67
2019-03-21T06:26:14.654Z,37.23
2019-03-21T06:28:55.143Z,37.43
2019-03-21T06:31:36.269Z,37.87
2019-03-21T06:34:25.108Z,38.42
2019-03-21T06:39:38.375Z,36.77
2019-03-21T06:42:15.904Z,38.40
2019-03-21T06:44:53.345Z,39.30
2019-03-21T06:47:28.437Z,38.38
2019-03-21T06:50:01.995Z,42.43
2019-03-21T06:52:33.022Z,37.80
2019-03-21T06:55:02.742Z,42.93
2019-03-21T06:57:43.238Z,40.30
2019-03-21T07:00:25.041Z,41.00
2019-03-21T07:03:04.012Z,40.67
2019-03-21T07:05:45.049Z,38.92
2019-03-21T07:08:25.366Z,38.37
2019-03-21T07:11:00.338Z,42.15
2019-03-21T07:13:35.313Z,40.25
2019-03-21T07:16:10.252Z,39.60
2019-03-21T07:18:45.453Z,39.48
2019-03-21T07:21:20.934Z,38.83
2019-03-21T07:23:55.934Z,39.03
2019-03-21T07:26:30.802Z,37.67
2019-03-21T07:29:07.364Z,38.00
2019-03-21T07:31:42.973Z,38.43
2019-03-21T07:34:18.615Z,37.47
2019-03-21T07:36:53.988Z,36.75
2019-03-21T07:39:28.945Z,35.90
2019-03-21T07:42:03.623Z,35.48
2019-03-21T07:44:38.436Z,37.25
2019-03-21T07:47:13.616Z,38.53
2019-03-21T07:49:48.960Z,38.42
2019-03-21T07:52:24.117Z,39.25
2019-03-21T07:54:58.995Z,38.95
2019-03-21T07:57:33.770Z,39.60
2019-03-21T08:00:09.205Z,38.98
2019-03-21T08:02:44.388Z,39.23
2019-03-21T08:05:19.393Z,42.00
2019-03-21T08:07:54.186Z,40.73
2019-03-21T08:10:29.575Z,44.90
2019-03-21T08:13:05.006Z,47.78
2019-03-21T08:15:39.825Z,47.73
2019-03-21T08:18:14.750Z,50.33
2019-03-21T08:20:57.186Z,49.90
2019-03-21T08:23:25.353Z,49.20
2019-03-21T08:26:00.339Z,48.73
2019-03-21T08:28:35.551Z,45.33
2019-03-21T08:31:10.398Z,46.90
2019-03-21T08:33:45.183Z,44.85
2019-03-21T08:36:20.167Z,43.47
2019-03-21T08:38:55.158Z,44.53
2019-03-21T08:41:30.263Z,45.77
2019-03-21T08:44:05.420Z,39.60
2019-03-21T08:46:40.090Z,38.60
2019-03-21T08:49:15.132Z,40.20
2019-03-21T08:51:49.982Z,39.67
2019-03-21T08:54:24.770Z,36.93
2019-03-21T08:56:59.872Z,39.67
2019-03-21T08:59:34.486Z,38.95
2019-03-21T09:02:09.280Z,38.60
2019-03-21T09:04:44.877Z,39.40
2019-03-21T09:07:19.999Z,40.03
2019-03-21T09:09:54.823Z,39.70
2019-03-21T09:12:24.251Z,40.30
2019-03-21T09:14:54.614Z,40.27
2019-03-21T09:17:24.164Z,40.20
2019-03-21T09:19:53.459Z,45.00
2019-03-21T09:22:23.173Z,44.53
2019-03-21T09:24:52.803Z,48.17
2019-03-21T09:27:22.592Z,44.53
2019-03-21T09:29:53.754Z,46.65
2019-03-21T09:32:25.065Z,45.47
2019-03-21T09:34:55.715Z,48.30
2019-03-21T09:37:26.895Z,46.83
2019-03-21T09:39:57.864Z,42.43
2019-03-21T09:42:27.362Z,42.90
2019-03-21T09:44:56.857Z,44.10
2019-03-21T09:47:26.418Z,43.10
2019-03-21T09:49:55.752Z,42.67
2019-03-21T09:52:25.421Z,43.77
2019-03-21T09:54:54.724Z,39.50
2019-03-21T09:57:24.720Z,40.53
2019-03-21T09:59:54.478Z,38.83
2019-03-21T10:02:25.190Z,35.43
2019-03-21T10:04:54.644Z,38.93
2019-03-21T10:07:24.287Z,40.23
2019-03-21T10:10:00.406Z,38.17
2019-03-21T10:12:37.775Z,40.60
2019-03-21T10:15:12.999Z,42.03
2019-03-21T10:17:48.487Z,40.87
2019-03-21T10:20:22.778Z,37.25
2019-03-21T10:22:59.179Z,38.13
2019-03-21T10:25:37.499Z,39.03
2019-03-21T10:28:15.568Z,39.23
2019-03-21T10:30:50.404Z,39.40
2019-03-21T10:33:25.647Z,39.37
2019-03-21T10:36:02.103Z,41.83
2019-03-21T10:38:40.262Z,40.07
2019-03-21T10:41:14.809Z,39.67
2019-03-21T10:43:51.831Z,40.65
2019-03-21T10:46:24.085Z,39.80
2019-03-21T10:48:58.177Z,40.80
2019-03-21T10:51:31.297Z,39.77
2019-03-21T10:54:08.623Z,38.77
2019-03-21T10:59:24.596Z,38.67
2019-03-21T11:02:06.868Z,38.53
2019-03-21T11:04:35.068Z,40.90
2019-03-21T11:07:09.276Z,38.47
2019-03-21T11:09:42.131Z,38.87
2019-03-21T11:12:19.311Z,39.80
2019-03-21T11:14:53.623Z,38.90
2019-03-21T11:17:28.928Z,38.87
2019-03-21T11:20:04.998Z,37.97
2019-03-21T11:22:43.028Z,38.33
2019-03-21T11:25:18.119Z,37.13
2019-03-21T11:27:53.062Z,36.43
2019-03-21T11:30:27.551Z,37.03
2019-03-21T11:33:05.324Z,37.90
2019-03-21T11:35:41.354Z,39.13
2019-03-21T11:40:54.153Z,39.33
2019-03-21T11:43:28.278Z,36.60
2019-03-21T11:46:04.586Z,35.77
2019-03-21T11:48:40.053Z,35.93
2019-03-21T11:51:17.360Z,37.50
2019-03-21T11:53:54.527Z,36.97
2019-03-21T11:56:33.979Z,37.63
2019-03-21T11:59:09.883Z,37.53
2019-03-21T12:01:47.368Z,36.13
2019-03-21T12:04:23.310Z,37.27
2019-03-21T12:06:58.645Z,36.57
2019-03-21T12:09:36.782Z,38.13
2019-03-21T12:12:12.063Z,37.87
2019-03-21T12:14:46.158Z,38.13
2019-03-21T12:17:25.261Z,39.70
2019-03-21T12:20:04.762Z,38.87
2019-03-21T12:22:41.542Z,39.13
2019-03-21T12:25:11.130Z,45.17
2019-03-21T12:27:41.420Z,39.60
2019-03-21T12:30:10.842Z,47.67
2019-03-21T12:32:40.440Z,44.70
2019-03-21T12:35:10.363Z,44.77
2019-03-21T12:37:40.198Z,46.43
2019-03-21T12:40:09.780Z,47.33
2019-03-21T12:42:39.409Z,48.63
2019-03-21T12:45:08.977Z,48.60
2019-03-21T12:47:38.838Z,46.77
2019-03-21T12:50:08.409Z,48.20
2019-03-21T12:54:06.382Z,50.97
2019-03-21T12:55:08.248Z,58.33
2019-03-21T12:57:37.769Z,64.27
2019-03-21T13:00:07.448Z,64.97
2019-03-21T13:02:37.227Z,65.37
2019-03-21T13:05:07.170Z,68.07
2019-03-21T13:07:36.985Z,68.73
2019-03-21T13:10:06.725Z,69.43
2019-03-21T13:12:36.204Z,64.47
2019-03-21T13:15:06.333Z,64.00
2019-03-21T13:17:35.629Z,63.00
2019-03-21T13:20:05.129Z,60.63
2019-03-21T13:22:34.479Z,60.37
2019-03-21T13:25:04.166Z,63.00
2019-03-21T13:27:34.551Z,56.97
2019-03-21T13:30:04.921Z,60.67
2019-03-21T13:32:34.565Z,64.57
2019-03-21T13:35:06.209Z,62.27
2019-03-21T13:37:34.688Z,60.43
2019-03-21T13:40:04.460Z,57.37
2019-03-21T13:42:34.163Z,58.97
2019-03-21T13:45:03.719Z,57.03
2019-03-21T13:47:32.997Z,53.90
2019-03-21T13:50:02.305Z,54.43
2019-03-21T13:52:31.771Z,52.10
2019-03-21T13:55:01.486Z,54.60
2019-03-21T13:57:31.152Z,52.57
2019-03-21T14:00:00.521Z,52.93
2019-03-21T14:02:30.034Z,56.60
2019-03-21T14:04:59.712Z,53.30
2019-03-21T14:07:29.297Z,57.23
2019-03-21T14:09:58.490Z,55.03
2019-03-21T14:12:28.112Z,56.13
2019-03-21T14:14:57.759Z,57.23
2019-03-21T14:17:27.444Z,55.97
2019-03-21T14:19:56.930Z,56.87
2019-03-21T14:22:26.586Z,55.87
2019-03-21T14:24:56.160Z,61.03
2019-03-21T14:27:26.176Z,63.33
2019-03-21T14:30:01.180Z,63.83
2019-03-21T14:32:25.669Z,59.23
2019-03-21T14:34:55.308Z,61.90
2019-03-21T14:37:24.701Z,61.63
2019-03-21T14:39:54.846Z,62.07
2019-03-21T14:42:24.554Z,63.40
2019-03-21T14:44:54.385Z,60.50
2019-03-21T14:47:35.617Z,60.73
2019-03-21T14:49:53.948Z,69.43
2019-03-21T14:52:26.371Z,63.83
2019-03-21T14:54:59.728Z,64.93
2019-03-21T14:57:29.562Z,63.07
2019-03-21T15:00:01.058Z,63.73
2019-03-21T15:02:31.235Z,62.00
2019-03-21T15:05:00.962Z,67.87
2019-03-21T15:07:31.293Z,67.27
2019-03-21T15:10:04.383Z,69.27
2019-03-21T15:12:37.979Z,63.17
2019-03-21T15:15:08.752Z,62.80
2019-03-21T15:17:41.293Z,93.50
2019-03-21T15:20:11.804Z,83.03
2019-03-21T15:22:43.663Z,85.90
2019-03-21T15:25:18.632Z,85.97
2019-03-21T15:27:49.243Z,86.07
2019-03-21T15:30:18.878Z,77.53
2019-03-21T15:32:48.726Z,89.13
2019-03-21T15:35:18.662Z,86.97
2019-03-21T15:37:48.761Z,79.53
2019-03-21T15:40:18.430Z,85.17
2019-03-21T15:42:48.480Z,82.63
2019-03-21T15:45:22.860Z,77.50
2019-03-21T15:47:48.550Z,88.10
2019-03-21T15:50:21.361Z,88.90
2019-03-21T15:52:52.102Z,80.83
2019-03-21T15:55:23.444Z,83.07
2019-03-21T15:57:55.400Z,81.23
2019-03-21T16:00:29.722Z,83.70
2019-03-21T16:03:02.922Z,83.00
2019-03-21T16:05:35.524Z,96.77
2019-03-21T16:08:09.075Z,87.80
2019-03-21T16:10:41.703Z,83.50
2019-03-21T16:13:12.032Z,74.63
2019-03-21T16:15:42.354Z,76.70
2019-03-21T16:18:12.136Z,85.90
2019-03-21T16:20:42.390Z,89.23
2019-03-21T16:23:12.626Z,119.27
2019-03-21T16:25:43.176Z,104.70
2019-03-21T16:28:12.789Z,83.77
2019-03-21T16:30:44.086Z,82.60
2019-03-21T16:33:15.832Z,85.07
2019-03-21T16:35:51.722Z,87.47
2019-03-21T16:38:23.646Z,84.10
2019-03-21T16:40:53.402Z,88.37
2019-03-21T16:43:24.879Z,89.80
2019-03-21T16:45:56.713Z,90.57
2019-03-21T16:48:26.659Z,94.70
2019-03-21T16:50:56.383Z,93.33
2019-03-21T16:53:25.495Z,95.87
2019-03-21T16:55:55.518Z,93.93
2019-03-21T16:58:25.236Z,95.70
2019-03-21T17:00:55.736Z,96.73
2019-03-21T17:03:25.542Z,95.40
2019-03-21T17:05:55.042Z,96.93
2019-03-21T17:08:24.418Z,96.50
2019-03-21T17:10:53.806Z,99.03
2019-03-21T17:13:24.587Z,104.83
2019-03-21T17:15:54.576Z,98.20
2019-03-21T17:18:24.331Z,96.03
2019-03-21T17:20:54.439Z,94.37
2019-03-21T17:23:24.290Z,100.90
2019-03-21T17:25:54.553Z,101.50
2019-03-21T17:28:24.263Z,104.00
2019-03-21T17:30:54.855Z,104.70
2019-03-21T17:33:25.144Z,97.57
2019-03-21T17:35:54.799Z,105.63
2019-03-21T17:38:24.904Z,98.93
2019-03-21T17:40:54.949Z,95.63
2019-03-21T17:43:25.380Z,103.07
2019-03-21T17:45:55.144Z,103.23
2019-03-21T17:48:25.289Z,107.03
2019-03-21T17:50:57.765Z,107.17
2019-03-21T17:53:27.331Z,111.23
2019-03-21T17:55:58.396Z,109.97
2019-03-21T17:58:28.844Z,101.50
2019-03-21T18:00:59.181Z,112.13
2019-03-21T18:03:29.244Z,114.40
2019-03-21T18:05:58.693Z,126.30
2019-03-21T18:08:29.235Z,114.77
2019-03-21T18:10:59.009Z,114.13
2019-03-21T18:13:28.644Z,114.73
2019-03-21T18:15:58.022Z,119.30
2019-03-21T18:18:27.639Z,117.63
2019-03-21T18:20:58.544Z,121.37
2019-03-21T18:23:28.570Z,120.63
2019-03-21T18:25:58.263Z,118.53
2019-03-21T18:28:29.109Z,125.97
2019-03-21T18:30:59.337Z,128.83
2019-03-21T18:33:29.010Z,120.63
2019-03-21T18:35:58.659Z,125.40
2019-03-21T18:38:29.343Z,121.53
2019-03-21T18:40:58.966Z,124.23
2019-03-21T18:43:29.555Z,125.73
2019-03-21T18:45:59.430Z,124.23
2019-03-21T18:48:28.958Z,124.47
2019-03-21T18:50:59.108Z,119.17
2019-03-21T18:53:28.914Z,117.20
2019-03-21T18:55:59.349Z,115.57
2019-03-21T18:58:29.787Z,114.57
2019-03-21T19:00:59.554Z,115.90
2019-03-21T19:03:30.508Z,103.97
2019-03-21T19:06:00.948Z,105.90
2019-03-21T19:08:30.692Z,110.40
2019-03-21T19:11:00.410Z,116.50
2019-03-21T19:13:30.851Z,111.87
2019-03-21T19:16:00.558Z,109.20
2019-03-21T19:18:30.480Z,110.67
2019-03-21T19:21:00.805Z,113.47
2019-03-21T19:23:30.585Z,109.60
2019-03-21T19:26:00.592Z,113.63
2019-03-21T19:28:31.283Z,109.00
2019-03-21T19:31:01.639Z,109.93
2019-03-21T19:33:31.453Z,107.93
2019-03-21T19:36:01.181Z,103.20
2019-03-21T19:38:31.310Z,92.40
2019-03-21T19:41:02.030Z,83.63
2019-03-21T19:43:32.326Z,84.70
2019-03-21T19:46:02.602Z,87.37
2019-03-21T19:48:32.892Z,84.17
2019-03-21T19:51:03.295Z,87.43
2019-03-21T19:53:33.252Z,81.33
2019-03-21T19:56:08.408Z,73.57
2019-03-21T19:58:34.220Z,68.80
2019-03-21T20:01:04.177Z,74.60
2019-03-21T20:03:34.132Z,77.53
2019-03-21T20:06:04.092Z,77.03
2019-03-21T20:08:33.864Z,75.30
2019-03-21T20:11:04.256Z,69.10
2019-03-21T20:13:34.653Z,67.40
2019-03-21T20:16:04.728Z,72.97
2019-03-21T20:18:35.145Z,78.53
2019-03-21T20:21:04.817Z,75.03
2019-03-21T20:23:34.654Z,74.97
2019-03-21T20:26:04.913Z,77.30
2019-03-21T20:28:35.142Z,65.77
2019-03-21T20:31:05.225Z,65.03
2019-03-21T20:33:35.627Z,76.93
2019-03-21T20:36:05.375Z,73.87
2019-03-21T20:38:35.781Z,68.70
2019-03-21T20:41:06.183Z,67.87
2019-03-21T20:43:36.275Z,68.53
2019-03-21T20:46:06.336Z,66.33
2019-03-21T20:48:37.263Z,69.13
2019-03-21T20:51:07.782Z,74.63
2019-03-21T20:53:37.387Z,70.77
2019-03-21T20:56:07.829Z,69.40
2019-03-21T20:58:38.335Z,68.60
2019-03-21T21:01:08.137Z,67.27
2019-03-21T21:03:38.172Z,63.23
2019-03-21T21:06:08.572Z,66.80
2019-03-21T21:08:38.669Z,72.77
2019-03-21T21:11:09.050Z,71.07
2019-03-21T21:13:39.136Z,73.87
2019-03-21T21:16:09.536Z,69.13
2019-03-21T21:18:39.709Z,74.70
2019-03-21T21:21:10.334Z,71.40
2019-03-21T21:23:40.729Z,74.37
2019-03-21T21:26:11.136Z,80.60
2019-03-21T21:28:41.219Z,73.13
2019-03-21T21:31:12.256Z,66.23
2019-03-21T21:33:42.263Z,71.03
2019-03-21T21:36:21.654Z,66.60
2019-03-21T21:38:43.105Z,67.40
2019-03-21T21:41:13.642Z,63.07
2019-03-21T21:43:43.355Z,62.33
2019-03-21T21:46:13.372Z,62.67
2019-03-21T21:48:43.461Z,59.73
2019-03-21T21:51:13.529Z,56.77
2019-03-21T21:53:43.420Z,55.57
2019-03-21T21:56:17.875Z,53.57
2019-03-21T21:58:44.095Z,52.93
2019-03-21T22:01:14.168Z,58.27
2019-03-21T22:03:44.264Z,57.07
2019-03-21T22:06:14.522Z,56.70
2019-03-21T22:08:44.957Z,61.30
2019-03-21T22:11:15.562Z,59.20
2019-03-21T22:13:45.573Z,59.63
2019-03-21T22:16:15.273Z,65.73
2019-03-21T22:18:45.844Z,59.37
2019-03-21T22:21:16.131Z,62.93
2019-03-21T22:23:46.501Z,60.63
2019-03-21T22:26:28.844Z,62.30
2019-03-21T22:28:47.934Z,68.73
2019-03-21T22:31:18.031Z,68.90
2019-03-21T22:33:48.101Z,70.50
2019-03-21T22:36:17.863Z,65.43
2019-03-21T22:38:48.495Z,65.43
2019-03-21T22:41:19.070Z,68.87
2019-03-21T22:43:49.118Z,66.37
2019-03-21T22:46:18.670Z,70.73
2019-03-21T22:48:48.781Z,66.57
2019-03-21T22:51:19.657Z,70.20
2019-03-21T22:53:49.768Z,72.53
2019-03-21T22:56:19.847Z,72.57
2019-03-21T22:58:49.999Z,69.07
2019-03-21T23:01:20.683Z,72.63
2019-03-21T23:03:50.976Z,66.30
2019-03-21T23:06:21.051Z,71.87
2019-03-21T23:08:51.213Z,70.83
2019-03-21T23:11:21.534Z,66.37
2019-03-21T23:13:51.714Z,69.77
2019-03-21T23:16:22.345Z,67.63
2019-03-21T23:18:53.075Z,67.57
2019-03-21T23:21:22.879Z,69.47
2019-03-21T23:23:52.915Z,68.23
2019-03-21T23:26:23.310Z,70.13
2019-03-21T23:28:53.067Z,66.17
2019-03-21T23:31:22.868Z,66.20
2019-03-21T23:33:52.193Z,70.40
2019-03-21T23:36:22.015Z,70.90
2019-03-21T23:38:51.659Z,75.33
2019-03-21T23:41:21.706Z,77.40
2019-03-21T23:43:51.240Z,73.47
2019-03-21T23:46:21.132Z,74.47
2019-03-21T23:48:50.499Z,75.77
2019-03-21T23:51:19.923Z,75.30
2019-03-21T23:53:49.222Z,72.03
2019-03-21T23:56:18.432Z,69.00
2019-03-21T23:58:48.059Z,78.73
